createdAt,value
2022-10-09T00:01:12.059Z,18.00
2022-10-09T00:03:41.281Z,16.77
2022-10-09T00:06:10.290Z,19.20
2022-10-09T00:08:41.486Z,16.50
2022-10-09T00:11:10.514Z,16.38
2022-10-09T00:13:38.312Z,15.32
2022-10-09T00:16:07.286Z,16.45
2022-10-09T00:18:36.027Z,17.65
2022-10-09T00:21:04.654Z,16.27
2022-10-09T00:23:32.501Z,16.98
2022-10-09T00:26:01.279Z,17.77
2022-10-09T00:28:30.144Z,16.60
2022-10-09T00:30:57.799Z,16.15
2022-10-09T00:33:25.412Z,16.77
2022-10-09T00:35:53.132Z,16.15
2022-10-09T00:38:21.457Z,18.15
2022-10-09T00:40:49.074Z,17.80
2022-10-09T00:43:18.877Z,18.02
2022-10-09T00:45:51.122Z,19.63
2022-10-09T00:48:18.671Z,19.63
2022-10-09T00:50:55.992Z,18.77
2022-10-09T00:53:24.345Z,19.48
2022-10-09T00:55:52.703Z,17.35
2022-10-09T00:58:20.881Z,16.40
2022-10-09T01:00:49.869Z,15.48
2022-10-09T01:03:17.409Z,17.05
2022-10-09T01:06:02.767Z,18.83
2022-10-09T01:08:39.464Z,19.55
2022-10-09T01:11:13.671Z,17.83
2022-10-09T01:13:48.896Z,16.67
2022-10-09T01:16:27.619Z,16.85
2022-10-09T01:19:22.505Z,18.08
2022-10-09T01:22:03.724Z,17.70
2022-10-09T01:24:38.439Z,18.52
2022-10-09T01:27:09.042Z,17.60
2022-10-09T01:29:41.286Z,19.65
2022-10-09T01:32:09.597Z,18.25
2022-10-09T01:34:37.754Z,18.15
2022-10-09T01:37:05.283Z,17.63
2022-10-09T01:39:33.362Z,16.20
2022-10-09T01:42:00.944Z,15.65
2022-10-09T01:44:30.242Z,16.88
2022-10-09T01:46:59.373Z,15.98
2022-10-09T01:49:50.134Z,15.10
2022-10-09T01:52:24.713Z,16.20
2022-10-09T01:55:14.474Z,16.42
2022-10-09T01:58:05.207Z,16.55
2022-10-09T02:00:42.149Z,17.30
2022-10-09T02:03:11.389Z,15.13
2022-10-09T02:05:39.125Z,23.92
2022-10-09T02:08:06.776Z,18.50
2022-10-09T02:10:34.418Z,27.02
2022-10-09T02:13:02.554Z,17.45
2022-10-09T02:15:37.590Z,18.75
2022-10-09T02:18:15.253Z,19.65
2022-10-09T02:20:46.051Z,19.88
2022-10-09T02:23:13.777Z,16.05
2022-10-09T02:25:41.598Z,17.20
2022-10-09T02:28:11.589Z,18.65
2022-10-09T02:30:46.390Z,17.02
2022-10-09T02:33:14.060Z,18.27
2022-10-09T02:35:42.001Z,17.80
2022-10-09T02:38:09.592Z,16.13
2022-10-09T02:40:37.137Z,16.63
2022-10-09T02:43:04.896Z,17.27
2022-10-09T02:45:32.558Z,16.48
2022-10-09T02:48:00.488Z,16.80
2022-10-09T02:50:28.240Z,16.38
2022-10-09T02:52:57.239Z,16.27
2022-10-09T02:55:24.922Z,16.30
2022-10-09T02:57:52.562Z,15.43
2022-10-09T03:00:20.213Z,17.73
2022-10-09T03:02:48.223Z,16.70
2022-10-09T03:05:16.057Z,15.60
2022-10-09T03:07:51.252Z,15.73
2022-10-09T03:10:19.939Z,16.30
2022-10-09T03:12:47.890Z,15.73
2022-10-09T03:15:16.730Z,15.85
2022-10-09T03:17:44.297Z,15.60
2022-10-09T03:20:11.910Z,16.23
2022-10-09T03:22:39.641Z,16.67
2022-10-09T03:25:07.952Z,14.63
2022-10-09T03:27:35.926Z,15.65
2022-10-09T03:30:04.441Z,13.98
2022-10-09T03:32:32.277Z,14.93
2022-10-09T03:35:00.102Z,17.15
2022-10-09T03:37:27.832Z,15.98
2022-10-09T03:39:55.536Z,16.27
2022-10-09T03:42:23.204Z,14.98
2022-10-09T03:44:50.781Z,15.80
2022-10-09T03:47:18.415Z,14.75
2022-10-09T03:49:46.209Z,15.18
2022-10-09T03:52:13.782Z,15.05
2022-10-09T03:54:41.344Z,17.23
2022-10-09T03:57:08.898Z,16.15
2022-10-09T03:59:37.599Z,15.07
2022-10-09T04:02:05.196Z,15.55
2022-10-09T04:04:32.742Z,15.93
2022-10-09T04:07:00.839Z,16.17
2022-10-09T04:09:28.488Z,17.80
2022-10-09T04:11:57.066Z,17.55
2022-10-09T04:14:24.857Z,15.68
2022-10-09T04:16:52.427Z,14.32
2022-10-09T04:19:23.046Z,16.63
2022-10-09T04:21:52.147Z,14.88
2022-10-09T04:24:19.767Z,15.00
2022-10-09T04:26:47.362Z,17.50
2022-10-09T04:29:15.404Z,20.83
2022-10-09T04:31:43.008Z,21.17
2022-10-09T04:34:11.047Z,19.45
2022-10-09T04:36:38.716Z,18.08
2022-10-09T04:39:06.377Z,16.52
2022-10-09T04:41:38.234Z,16.63
2022-10-09T04:44:06.266Z,17.27
2022-10-09T04:46:34.116Z,15.55
2022-10-09T04:49:01.931Z,17.48
2022-10-09T04:51:29.581Z,17.33
2022-10-09T04:54:00.437Z,17.05
2022-10-09T04:56:28.577Z,17.17
2022-10-09T04:58:56.154Z,17.20
2022-10-09T05:01:25.629Z,16.92
2022-10-09T05:03:53.580Z,17.65
2022-10-09T05:06:21.829Z,17.13
2022-10-09T05:08:49.804Z,16.95
2022-10-09T05:11:19.683Z,18.13
2022-10-09T05:13:49.116Z,15.50
2022-10-09T05:16:21.671Z,16.83
2022-10-09T05:18:53.402Z,16.35
2022-10-09T05:21:21.221Z,16.63
2022-10-09T05:23:49.722Z,15.90
2022-10-09T05:26:18.725Z,16.02
2022-10-09T05:28:48.279Z,15.40
2022-10-09T05:31:24.303Z,15.23
2022-10-09T05:33:52.701Z,14.90
2022-10-09T05:36:21.063Z,14.63
2022-10-09T05:38:49.444Z,15.50
2022-10-09T05:41:17.946Z,14.82
2022-10-09T05:43:47.132Z,13.90
2022-10-09T05:46:23.525Z,14.63
2022-10-09T05:48:53.974Z,12.85
2022-10-09T05:51:23.235Z,11.77
2022-10-09T05:53:51.420Z,10.88
2022-10-09T05:56:21.197Z,10.60
2022-10-09T05:58:57.346Z,11.00
2022-10-09T06:01:29.455Z,10.98
2022-10-09T06:03:58.844Z,10.02
2022-10-09T06:06:30.872Z,10.55
2022-10-09T06:08:58.620Z,10.20
2022-10-09T06:11:28.752Z,10.00
2022-10-09T06:14:00.506Z,11.38
2022-10-09T06:16:32.798Z,9.50
2022-10-09T06:19:00.913Z,9.70
2022-10-09T06:21:29.026Z,10.10
2022-10-09T06:23:58.116Z,9.10
2022-10-09T06:26:30.986Z,10.00
2022-10-09T06:28:59.979Z,9.00
2022-10-09T06:31:31.889Z,9.35
2022-10-09T06:34:00.350Z,8.48
2022-10-09T06:36:29.524Z,8.13
2022-10-09T06:39:03.555Z,7.90
2022-10-09T06:41:31.519Z,8.25
2022-10-09T06:44:00.683Z,8.50
2022-10-09T06:46:30.343Z,8.00
2022-10-09T06:48:59.193Z,7.70
2022-10-09T06:51:28.266Z,8.38
2022-10-09T06:53:57.116Z,7.78
2022-10-09T06:56:25.952Z,7.50
2022-10-09T06:58:53.523Z,8.32
2022-10-09T07:01:27.036Z,7.57
2022-10-09T07:03:58.957Z,6.80
2022-10-09T07:06:29.554Z,6.90
2022-10-09T07:09:00.771Z,7.70
2022-10-09T07:11:33.384Z,7.15
2022-10-09T07:14:01.887Z,7.72
2022-10-09T07:16:40.514Z,7.50
2022-10-09T07:19:11.333Z,7.38
2022-10-09T07:21:40.567Z,7.53
2022-10-09T07:24:08.268Z,6.95
2022-10-09T07:26:37.785Z,6.88
2022-10-09T07:29:06.388Z,7.53
2022-10-09T07:31:34.209Z,7.30
2022-10-09T07:34:01.821Z,7.80
2022-10-09T07:36:29.714Z,6.60
2022-10-09T07:38:58.506Z,6.90
2022-10-09T07:41:27.652Z,6.78
2022-10-09T07:43:55.699Z,6.88
2022-10-09T07:46:24.287Z,6.68
2022-10-09T07:48:52.405Z,6.47
2022-10-09T07:51:24.409Z,6.68
2022-10-09T07:53:52.193Z,5.90
2022-10-09T07:56:21.992Z,6.68
2022-10-09T07:58:50.633Z,6.80
2022-10-09T08:01:20.345Z,6.13
2022-10-09T08:03:48.580Z,6.15
2022-10-09T08:06:16.988Z,6.47
2022-10-09T08:08:44.947Z,6.20
2022-10-09T08:11:14.289Z,6.43
2022-10-09T08:13:43.164Z,6.03
2022-10-09T08:16:11.260Z,6.40
2022-10-09T08:18:38.821Z,6.20
2022-10-09T08:21:08.263Z,6.65
2022-10-09T08:23:36.090Z,6.55
2022-10-09T08:26:04.149Z,6.40
2022-10-09T08:28:32.605Z,6.82
2022-10-09T08:31:00.352Z,6.93
2022-10-09T08:33:28.040Z,6.68
2022-10-09T08:35:55.600Z,6.47
2022-10-09T08:38:46.158Z,7.28
2022-10-09T08:41:33.355Z,6.13
2022-10-09T08:44:13.383Z,6.25
2022-10-09T08:47:09.846Z,6.43
2022-10-09T08:49:40.121Z,6.30
2022-10-09T08:52:29.578Z,6.13
2022-10-09T08:54:58.944Z,6.82
2022-10-09T08:57:27.703Z,6.57
2022-10-09T08:59:55.554Z,6.30
2022-10-09T09:02:33.644Z,6.70
2022-10-09T09:05:04.253Z,6.53
2022-10-09T09:07:35.769Z,6.70
2022-10-09T09:12:53.617Z,6.70
2022-10-09T09:15:40.202Z,6.90
2022-10-09T09:18:46.459Z,6.90
2022-10-09T09:21:45.241Z,6.25
2022-10-09T09:24:34.895Z,6.40
2022-10-09T09:27:06.539Z,6.07
2022-10-09T09:29:38.819Z,6.72
2022-10-09T09:32:07.645Z,6.03
2022-10-09T09:34:39.604Z,6.18
2022-10-09T09:37:10.231Z,6.60
2022-10-09T09:42:27.430Z,6.40
2022-10-09T09:45:02.307Z,5.60
2022-10-09T09:47:42.221Z,5.53
2022-10-09T09:50:23.464Z,5.72
2022-10-09T09:52:57.694Z,5.47
2022-10-09T09:55:27.724Z,5.93
2022-10-09T09:58:04.007Z,5.65
2022-10-09T10:00:31.830Z,5.70
2022-10-09T10:03:14.016Z,5.50
2022-10-09T10:05:42.673Z,5.60
2022-10-09T10:08:30.222Z,5.60
2022-10-09T10:11:02.868Z,5.85
2022-10-09T10:13:38.289Z,5.68
2022-10-09T10:16:07.040Z,5.85
2022-10-09T10:18:39.624Z,5.75
2022-10-09T10:21:14.245Z,5.22
2022-10-09T10:24:03.955Z,5.40
2022-10-09T10:26:49.070Z,6.40
2022-10-09T10:29:20.012Z,5.60
2022-10-09T10:31:51.520Z,5.77
2022-10-09T10:34:23.433Z,5.68
2022-10-09T10:37:01.063Z,5.65
2022-10-09T10:39:40.736Z,5.20
2022-10-09T10:42:12.477Z,5.03
2022-10-09T10:44:50.455Z,5.32
2022-10-09T10:47:20.364Z,5.30
2022-10-09T10:49:48.173Z,5.47
2022-10-09T10:52:44.931Z,5.95
2022-10-09T10:55:21.434Z,5.97
2022-10-09T10:57:49.170Z,6.43
2022-10-09T11:00:17.732Z,8.18
2022-10-09T11:03:11.113Z,5.53
2022-10-09T11:05:51.482Z,6.25
2022-10-09T11:08:22.302Z,6.13
2022-10-09T11:13:40.617Z,6.30
2022-10-09T11:16:22.321Z,6.57
2022-10-09T11:19:20.878Z,8.35
2022-10-09T11:22:20.805Z,6.03
2022-10-09T11:25:07.069Z,6.43
2022-10-09T11:27:49.224Z,6.25
2022-10-09T11:30:17.461Z,6.00
2022-10-09T11:33:10.373Z,5.70
2022-10-09T11:35:42.706Z,6.07
2022-10-09T11:38:31.918Z,6.72
2022-10-09T11:41:02.658Z,7.10
2022-10-09T11:43:43.445Z,7.20
2022-10-09T11:46:18.820Z,7.07
2022-10-09T11:49:07.714Z,8.68
2022-10-09T11:51:39.469Z,6.85
2022-10-09T11:54:13.633Z,8.05
2022-10-09T11:56:55.439Z,8.35
2022-10-09T11:59:36.186Z,8.82
2022-10-09T12:02:26.416Z,8.47
2022-10-09T12:04:55.644Z,8.15
2022-10-09T12:07:33.127Z,8.48
2022-10-09T12:10:22.217Z,7.57
2022-10-09T12:13:03.573Z,9.18
2022-10-09T12:15:37.137Z,8.30
2022-10-09T12:18:24.786Z,8.05
2022-10-09T12:20:52.418Z,9.55
2022-10-09T12:23:27.208Z,10.07
2022-10-09T12:25:55.865Z,10.70
2022-10-09T12:28:34.816Z,14.95
2022-10-09T12:31:04.017Z,10.68
2022-10-09T12:33:53.655Z,35.85
2022-10-09T12:36:26.375Z,11.80
2022-10-09T12:38:54.061Z,8.93
2022-10-09T12:41:30.568Z,10.25
2022-10-09T12:43:58.210Z,8.75
2022-10-09T12:46:37.478Z,8.77
2022-10-09T12:49:06.345Z,7.65
2022-10-09T12:51:34.025Z,9.32
2022-10-09T12:54:06.860Z,9.13
2022-10-09T12:56:38.240Z,7.93
2022-10-09T12:59:09.481Z,8.40
2022-10-09T13:01:38.018Z,8.63
2022-10-09T13:04:06.244Z,8.52
2022-10-09T13:06:46.370Z,8.55
2022-10-09T13:09:25.456Z,9.35
2022-10-09T13:12:21.221Z,8.80
2022-10-09T13:15:03.648Z,10.88
2022-10-09T13:17:39.845Z,14.18
2022-10-09T13:20:16.560Z,14.02
2022-10-09T13:23:03.770Z,13.63
2022-10-09T13:25:36.400Z,11.32
2022-10-09T13:28:05.217Z,10.85
2022-10-09T13:30:33.111Z,12.93
2022-10-09T13:33:00.958Z,15.07
2022-10-09T13:35:28.649Z,17.00
2022-10-09T13:37:56.333Z,16.00
2022-10-09T13:40:24.363Z,18.20
2022-10-09T13:42:56.104Z,17.52
2022-10-09T13:45:23.847Z,20.45
2022-10-09T13:47:52.635Z,20.55
2022-10-09T13:50:20.527Z,21.42
2022-10-09T13:52:48.100Z,22.27
2022-10-09T13:55:15.781Z,23.13
2022-10-09T13:57:44.136Z,22.48
2022-10-09T14:00:12.680Z,24.60
2022-10-09T14:02:40.449Z,30.55
2022-10-09T14:05:08.209Z,34.63
2022-10-09T14:07:36.775Z,31.17
2022-10-09T14:10:05.204Z,32.17
2022-10-09T14:12:32.843Z,32.42
2022-10-09T14:15:00.425Z,31.25
2022-10-09T14:17:28.684Z,32.08
2022-10-09T14:19:56.344Z,32.72
2022-10-09T14:22:23.874Z,31.63
2022-10-09T14:24:51.516Z,29.67
2022-10-09T14:27:19.317Z,29.08
2022-10-09T14:29:49.766Z,29.95
2022-10-09T14:32:18.830Z,26.98
2022-10-09T14:34:46.653Z,26.48
2022-10-09T14:37:29.621Z,26.98
2022-10-09T14:40:02.252Z,28.35
2022-10-09T14:42:30.026Z,86.90
2022-10-09T14:44:57.723Z,31.15
2022-10-09T14:47:26.946Z,33.05
2022-10-09T14:49:54.666Z,31.85
2022-10-09T14:52:22.267Z,37.60
2022-10-09T14:54:49.903Z,38.83
2022-10-09T14:57:17.649Z,39.33
2022-10-09T14:59:45.349Z,35.55
2022-10-09T15:02:14.636Z,32.85
2022-10-09T15:04:42.509Z,30.83
2022-10-09T15:07:10.960Z,29.67
2022-10-09T15:09:44.482Z,27.15
2022-10-09T15:12:12.183Z,145.73
2022-10-09T15:14:40.017Z,49.35
2022-10-09T15:17:09.087Z,35.47
2022-10-09T15:19:40.015Z,39.15
2022-10-09T15:22:07.840Z,38.25
2022-10-09T15:24:35.677Z,38.50
2022-10-09T15:27:03.622Z,38.92
2022-10-09T15:29:31.268Z,39.78
2022-10-09T15:31:59.098Z,40.65
2022-10-09T15:34:27.026Z,42.63
2022-10-09T15:36:54.570Z,44.45
2022-10-09T15:39:22.313Z,48.40
2022-10-09T15:41:50.477Z,47.20
2022-10-09T15:44:19.741Z,55.80
2022-10-09T15:46:47.739Z,47.80
2022-10-09T15:49:15.221Z,46.15
2022-10-09T15:51:42.901Z,43.55
2022-10-09T15:54:11.069Z,41.58
2022-10-09T15:56:40.219Z,41.53
2022-10-09T15:59:10.734Z,42.60
2022-10-09T16:01:38.768Z,46.40
2022-10-09T16:04:06.595Z,50.55
2022-10-09T16:06:34.748Z,42.75
2022-10-09T16:09:04.154Z,43.20
2022-10-09T16:11:32.147Z,43.58
2022-10-09T16:14:00.664Z,44.08
2022-10-09T16:16:33.247Z,47.20
2022-10-09T16:19:02.404Z,48.90
2022-10-09T16:21:30.318Z,49.92
2022-10-09T16:23:59.457Z,56.42
2022-10-09T16:26:28.582Z,53.90
2022-10-09T16:28:56.320Z,55.45
2022-10-09T16:31:28.840Z,52.45
2022-10-09T16:33:58.680Z,51.65
2022-10-09T16:36:26.458Z,62.20
2022-10-09T16:38:54.026Z,65.30
2022-10-09T16:41:22.284Z,62.42
2022-10-09T16:43:54.929Z,64.38
2022-10-09T16:46:27.312Z,80.45
2022-10-09T16:48:55.738Z,65.55
2022-10-09T16:51:25.527Z,62.30
2022-10-09T16:53:54.408Z,57.00
2022-10-09T16:56:23.772Z,52.28
2022-10-09T16:58:54.860Z,51.85
2022-10-09T17:01:22.577Z,52.53
2022-10-09T17:03:50.199Z,58.42
2022-10-09T17:06:23.880Z,57.88
2022-10-09T17:08:53.279Z,58.90
2022-10-09T17:11:21.129Z,58.22
2022-10-09T17:13:48.740Z,65.95
2022-10-09T17:16:20.749Z,58.65
2022-10-09T17:18:48.421Z,107.10
2022-10-09T17:21:16.740Z,68.30
2022-10-09T17:23:45.186Z,57.10
2022-10-09T17:26:14.653Z,57.55
2022-10-09T17:28:42.782Z,57.17
2022-10-09T17:31:16.564Z,56.78
2022-10-09T17:33:46.372Z,58.75
2022-10-09T17:36:20.880Z,58.22
2022-10-09T17:38:50.005Z,57.22
2022-10-09T17:41:18.972Z,56.47
2022-10-09T17:43:47.452Z,56.00
2022-10-09T17:46:15.609Z,52.65
2022-10-09T17:48:45.392Z,53.30
2022-10-09T17:51:17.550Z,51.50
2022-10-09T17:53:45.761Z,49.97
2022-10-09T17:56:13.586Z,43.53
2022-10-09T17:58:42.877Z,43.47
2022-10-09T18:01:10.805Z,38.17
2022-10-09T18:03:38.484Z,51.92
2022-10-09T18:06:07.966Z,38.47
2022-10-09T18:08:36.645Z,46.80
2022-10-09T18:11:08.065Z,38.72
2022-10-09T18:13:38.129Z,38.83
2022-10-09T18:16:09.697Z,170.30
2022-10-09T18:18:37.636Z,141.02
2022-10-09T18:21:08.397Z,63.00
2022-10-09T18:23:36.654Z,45.40
2022-10-09T18:26:11.145Z,39.70
2022-10-09T18:28:38.834Z,43.42
2022-10-09T18:31:11.209Z,40.65
2022-10-09T18:33:39.178Z,40.92
2022-10-09T18:36:19.789Z,39.22
2022-10-09T18:38:48.959Z,40.53
2022-10-09T18:41:17.083Z,39.22
2022-10-09T18:43:44.732Z,39.83
2022-10-09T18:46:12.545Z,38.53
2022-10-09T18:48:40.685Z,33.88
2022-10-09T18:51:13.723Z,36.75
2022-10-09T18:53:44.111Z,39.78
2022-10-09T18:56:11.775Z,33.97
2022-10-09T18:58:40.713Z,32.45
2022-10-09T19:01:08.509Z,35.95
2022-10-09T19:03:37.814Z,48.67
2022-10-09T19:06:06.159Z,257.92
2022-10-09T19:08:36.653Z,56.40
2022-10-09T19:11:04.491Z,41.95
2022-10-09T19:13:32.132Z,36.90
2022-10-09T19:16:00.338Z,39.25
2022-10-09T19:18:28.516Z,39.72
2022-10-09T19:20:57.734Z,41.60
2022-10-09T19:23:27.909Z,40.33
2022-10-09T19:25:57.288Z,42.47
2022-10-09T19:28:27.806Z,50.13
2022-10-09T19:30:56.065Z,40.42
2022-10-09T19:33:23.728Z,44.88
2022-10-09T19:35:53.167Z,41.90
2022-10-09T19:38:21.196Z,38.67
2022-10-09T19:40:49.019Z,39.60
2022-10-09T19:43:17.051Z,38.10
2022-10-09T19:45:44.903Z,32.47
2022-10-09T19:48:18.221Z,30.63
2022-10-09T19:50:46.344Z,29.95
2022-10-09T19:53:14.163Z,28.33
2022-10-09T19:55:41.966Z,31.10
2022-10-09T19:58:09.653Z,29.75
2022-10-09T20:00:46.743Z,29.17
2022-10-09T20:03:14.516Z,30.90
2022-10-09T20:05:42.856Z,33.92
2022-10-09T20:08:18.049Z,35.13
2022-10-09T20:10:48.081Z,29.90
2022-10-09T20:13:15.745Z,28.42
2022-10-09T20:15:46.084Z,28.33
2022-10-09T20:18:14.694Z,27.17
2022-10-09T20:20:47.311Z,27.73
2022-10-09T20:25:42.714Z,26.20
2022-10-09T20:28:10.598Z,25.85
2022-10-09T20:30:38.361Z,25.00
2022-10-09T20:33:07.406Z,25.05
2022-10-09T20:35:43.215Z,24.40
2022-10-09T20:38:11.064Z,26.17
2022-10-09T20:40:38.649Z,24.67
2022-10-09T20:43:06.445Z,38.83
2022-10-09T20:45:41.647Z,34.70
2022-10-09T20:48:09.561Z,27.85
2022-10-09T20:50:40.342Z,29.52
2022-10-09T20:53:10.041Z,26.83
2022-10-09T20:55:38.436Z,28.38
2022-10-09T20:58:06.149Z,27.30
2022-10-09T21:00:33.899Z,27.27
2022-10-09T21:03:03.964Z,27.75
2022-10-09T21:05:31.721Z,28.67
2022-10-09T21:07:59.332Z,41.45
2022-10-09T21:10:27.025Z,28.83
2022-10-09T21:12:54.662Z,39.95
2022-10-09T21:15:24.831Z,28.52
2022-10-09T21:17:52.473Z,27.98
2022-10-09T21:20:20.168Z,28.80
2022-10-09T21:22:48.423Z,29.95
2022-10-09T21:25:16.275Z,30.38
2022-10-09T21:27:43.960Z,35.97
2022-10-09T21:30:12.338Z,36.30
2022-10-09T21:32:39.979Z,37.10
2022-10-09T21:35:07.936Z,37.85
2022-10-09T21:37:37.526Z,42.65
2022-10-09T21:40:05.938Z,41.80
2022-10-09T21:42:33.676Z,43.72
2022-10-09T21:45:01.235Z,47.70
2022-10-09T21:47:29.998Z,49.50
2022-10-09T21:49:57.812Z,55.15
2022-10-09T21:52:25.501Z,58.03
2022-10-09T21:54:53.084Z,62.42
2022-10-09T21:57:20.993Z,61.92
2022-10-09T21:59:48.601Z,63.58
2022-10-09T22:02:16.353Z,63.13
2022-10-09T22:04:43.866Z,67.32
2022-10-09T22:07:11.726Z,67.88
2022-10-09T22:09:39.308Z,65.65
2022-10-09T22:12:06.871Z,63.15
2022-10-09T22:14:35.691Z,69.13
2022-10-09T22:17:03.764Z,64.45
2022-10-09T22:19:34.298Z,64.63
2022-10-09T22:22:01.951Z,65.07
2022-10-09T22:24:30.693Z,62.88
2022-10-09T22:26:59.522Z,64.75
2022-10-09T22:29:27.321Z,67.78
2022-10-09T22:31:54.945Z,66.55
2022-10-09T22:34:22.561Z,63.05
2022-10-09T22:36:50.422Z,60.25
2022-10-09T22:39:18.278Z,56.08
2022-10-09T22:41:45.958Z,56.78
2022-10-09T22:44:13.538Z,58.75
2022-10-09T22:46:43.643Z,55.15
2022-10-09T22:49:13.909Z,51.35
2022-10-09T22:51:41.861Z,49.50
2022-10-09T22:54:09.500Z,46.67
2022-10-09T22:56:38.932Z,48.13
2022-10-09T22:59:06.941Z,43.75
2022-10-09T23:01:37.447Z,43.13
2022-10-09T23:04:07.007Z,41.75
2022-10-09T23:06:34.825Z,41.35
2022-10-09T23:09:04.293Z,40.13
2022-10-09T23:11:32.067Z,35.72
2022-10-09T23:14:00.198Z,30.20
2022-10-09T23:16:31.522Z,29.35
2022-10-09T23:19:05.478Z,29.45
2022-10-09T23:21:34.522Z,24.98
2022-10-09T23:24:02.151Z,24.35
2022-10-09T23:26:31.305Z,23.67
2022-10-09T23:29:04.521Z,23.65
2022-10-09T23:31:32.901Z,22.23
2022-10-09T23:34:00.656Z,23.50
2022-10-09T23:36:29.069Z,22.38
2022-10-09T23:38:57.068Z,23.75
2022-10-09T23:41:25.868Z,24.17
2022-10-09T23:43:54.733Z,24.88
2022-10-09T23:46:24.725Z,26.38
2022-10-09T23:48:52.427Z,25.05
2022-10-09T23:51:20.570Z,26.52
2022-10-09T23:53:48.320Z,23.48
2022-10-09T23:56:26.508Z,23.70
2022-10-09T23:58:54.452Z,26.23
